Time;durP1;ratioP1;P1;durP2;ratioP2;P2;SDS_P1;SDS_P2;PMS_P1;PMS_P2;Temp;Humidity;BMP_temperature;BMP_pressure;BME280_temperature;BME280_humidity;BME280_pressure;Samples;Min_cycle;Max_cycle;Signal;HPM_P1;HPM_P2
2022/08/06 00:00:00;;;;;;;3.28;0.98;;;14.50;99.90;;;;;;4996511;28;20111;-52
2022/08/06 00:02:29;;;;;;;3.72;0.80;;;14.50;99.90;;;;;;5014381;28;20359;-52
2022/08/06 00:04:57;;;;;;;3.15;0.82;;;14.50;99.90;;;;;;5014210;28;20367;-49
2022/08/06 00:07:22;;;;;;;5.03;0.90;;;14.50;99.90;;;;;;5013207;28;20041;-51
2022/08/06 00:09:48;;;;;;;4.68;0.85;;;14.50;99.90;;;;;;5014209;28;20037;-48
2022/08/06 00:12:14;;;;;;;2.10;0.70;;;14.50;99.90;;;;;;5014350;28;20152;-53
2022/08/06 00:14:40;;;;;;;4.05;1.17;;;14.50;99.90;;;;;;5014342;28;20477;-52
2022/08/06 00:17:05;;;;;;;3.47;0.80;;;14.40;99.90;;;;;;5014025;28;20112;-52
2022/08/06 00:19:31;;;;;;;4.63;1.20;;;14.40;99.90;;;;;;5013703;28;20056;-51
2022/08/06 00:21:57;;;;;;;2.17;1.10;;;14.40;99.90;;;;;;5014110;28;20497;-52
2022/08/06 00:24:23;;;;;;;4.20;1.50;;;14.30;99.90;;;;;;5013805;28;20041;-52
2022/08/06 00:26:48;;;;;;;4.40;1.80;;;14.20;99.90;;;;;;5014064;28;20061;-48
2022/08/06 00:29:14;;;;;;;4.32;2.45;;;14.10;99.90;;;;;;5013912;28;20037;-47
2022/08/06 00:31:40;;;;;;;7.30;3.55;;;14.00;99.90;;;;;;5013659;28;20337;-49
2022/08/06 00:34:06;;;;;;;8.45;5.35;;;14.10;99.90;;;;;;5013890;28;20044;-49
2022/08/06 00:36:33;;;;;;;8.40;5.32;;;14.00;99.90;;;;;;5013616;28;20033;-48
2022/08/06 00:39:04;;;;;;;10.80;6.40;;;13.90;99.90;;;;;;5012832;28;20037;-50
2022/08/06 00:41:30;;;;;;;10.80;7.32;;;13.90;99.90;;;;;;4994754;28;20153;-52
2022/08/06 00:43:57;;;;;;;10.43;8.07;;;13.90;99.90;;;;;;5012970;28;20038;-52
2022/08/06 00:46:23;;;;;;;12.27;8.75;;;13.80;99.90;;;;;;5013610;28;20030;-50
2022/08/06 00:48:49;;;;;;;11.02;9.00;;;13.90;99.90;;;;;;5013533;28;20038;-53
2022/08/06 00:51:15;;;;;;;13.32;9.85;;;13.80;99.90;;;;;;5013735;28;20065;-52
2022/08/06 00:53:41;;;;;;;12.02;9.43;;;13.80;99.90;;;;;;5012953;28;20084;-49
2022/08/06 00:56:08;;;;;;;11.23;9.00;;;13.80;99.90;;;;;;5013298;28;20432;-48
2022/08/06 00:58:33;;;;;;;12.30;8.77;;;13.80;99.90;;;;;;4995851;28;20038;-46
2022/08/06 01:00:59;;;;;;;11.65;7.70;;;13.80;99.90;;;;;;5012135;28;20052;-47
2022/08/06 01:03:24;;;;;;;11.25;7.25;;;13.70;99.90;;;;;;5013363;28;20034;-48
2022/08/06 01:05:50;;;;;;;10.85;6.80;;;13.70;99.90;;;;;;5013490;28;20280;-48
2022/08/06 01:08:16;;;;;;;11.65;7.22;;;13.80;99.90;;;;;;5013133;28;20116;-51
2022/08/06 01:10:42;;;;;;;9.80;6.88;;;13.80;99.90;;;;;;5013417;28;20034;-53
2022/08/06 01:13:09;;;;;;;9.57;6.47;;;13.70;99.90;;;;;;4995438;28;20107;-50
2022/08/06 01:15:37;;;;;;;11.18;7.45;;;13.70;99.90;;;;;;5012731;28;20034;-50
2022/08/06 01:18:10;;;;;;;11.38;7.63;;;13.60;99.90;;;;;;5012638;28;20467;-54
2022/08/06 01:21:06;;;;;;;10.13;7.70;;;13.60;99.90;;;;;;5012882;28;20077;-50
2022/08/06 01:23:44;;;;;;;10.93;7.68;;;13.60;99.90;;;;;;5002553;28;20038;-50
2022/08/06 01:26:34;;;;;;;12.02;9.68;;;13.60;99.90;;;;;;5009271;28;20113;-51
2022/08/06 01:29:05;;;;;;;10.40;7.97;;;13.60;99.90;;;;;;5012167;28;20053;-49
2022/08/06 01:31:54;;;;;;;12.52;10.35;;;13.50;99.90;;;;;;5012099;28;20389;-51
2022/08/06 01:34:44;;;;;;;16.92;13.65;;;13.60;99.90;;;;;;5003120;28;20387;-52
2022/08/06 01:37:31;;;;;;;16.00;14.27;;;13.50;99.90;;;;;;5001576;28;20050;-54
2022/08/06 01:40:01;;;;;;;15.80;14.13;;;13.60;99.90;;;;;;5006246;28;20529;-51
2022/08/06 01:42:29;;;;;;;19.00;14.60;;;13.50;99.90;;;;;;4993695;28;20133;-49
2022/08/06 01:45:00;;;;;;;17.90;16.00;;;13.40;99.90;;;;;;4992862;28;20386;-50
2022/08/06 01:47:29;;;;;;;16.75;14.98;;;13.40;99.90;;;;;;4994494;28;20078;-51
2022/08/06 01:50:02;;;;;;;16.45;14.75;;;13.40;99.90;;;;;;4993738;28;20034;-49
2022/08/06 01:52:33;;;;;;;18.42;16.25;;;13.40;99.90;;;;;;4993810;28;20501;-50
2022/08/06 01:55:01;;;;;;;16.95;15.05;;;13.30;99.90;;;;;;5011025;28;20425;-52
2022/08/06 01:57:29;;;;;;;15.13;13.50;;;13.40;99.90;;;;;;5011876;28;20045;-50
2022/08/06 01:59:56;;;;;;;15.82;13.70;;;13.20;99.90;;;;;;4990581;28;20086;-51
2022/08/06 02:02:26;;;;;;;14.90;12.73;;;13.20;99.90;;;;;;4992671;28;20042;-52
2022/08/06 02:04:55;;;;;;;15.20;13.23;;;13.20;99.90;;;;;;5011818;28;20071;-49
2022/08/06 02:07:26;;;;;;;16.13;12.93;;;13.20;99.90;;;;;;5011869;28;20440;-52
2022/08/06 02:09:54;;;;;;;15.35;11.45;;;13.20;99.90;;;;;;5000608;28;20042;-53
2022/08/06 02:12:24;;;;;;;14.35;10.73;;;13.10;99.90;;;;;;5011800;28;20060;-48
2022/08/06 02:14:58;;;;;;;11.82;10.38;;;13.20;99.90;;;;;;5012136;28;20034;-52
2022/08/06 02:17:29;;;;;;;11.63;9.55;;;13.20;99.90;;;;;;5012062;28;20045;-50
2022/08/06 02:20:00;;;;;;;10.60;8.68;;;13.10;99.90;;;;;;5011212;28;20488;-51
2022/08/06 02:22:28;;;;;;;9.20;7.75;;;13.10;99.90;;;;;;5011930;28;20046;-49
2022/08/06 02:24:55;;;;;;;8.57;7.53;;;13.10;99.90;;;;;;5010203;28;20045;-52
2022/08/06 02:27:24;;;;;;;9.43;7.00;;;13.10;99.90;;;;;;5011769;28;20482;-51
2022/08/06 02:29:52;;;;;;;9.00;6.63;;;13.10;99.90;;;;;;5011557;28;20516;-53
2022/08/06 02:32:17;;;;;;;6.18;4.88;;;13.10;99.90;;;;;;4975986;28;20065;-50
2022/08/06 02:34:43;;;;;;;7.93;5.40;;;13.10;99.90;;;;;;4991875;28;20034;-48
2022/08/06 02:37:18;;;;;;;8.05;5.13;;;13.10;99.90;;;;;;4983904;28;20046;-51
2022/08/06 02:39:52;;;;;;;6.47;4.60;;;13.10;99.90;;;;;;5010380;28;20037;-52
2022/08/06 02:42:32;;;;;;;5.75;4.63;;;13.10;99.90;;;;;;5010575;28;20505;-46
2022/08/06 02:45:03;;;;;;;6.65;4.00;;;13.00;99.90;;;;;;4998383;28;20085;-49
2022/08/06 02:47:54;;;;;;;6.93;5.38;;;12.90;99.90;;;;;;4992035;28;20042;-50
2022/08/06 02:50:30;;;;;;;8.75;5.90;;;13.00;99.90;;;;;;4991332;28;20038;-50
2022/08/06 02:53:02;;;;;;;8.98;4.95;;;12.90;99.90;;;;;;4992709;28;20070;-48
2022/08/06 02:55:34;;;;;;;6.38;5.00;;;12.90;99.90;;;;;;5008898;28;20044;-47
2022/08/06 02:58:19;;;;;;;6.22;4.50;;;12.80;99.90;;;;;;5010591;28;20076;-49
2022/08/06 03:00:50;;;;;;;6.57;4.55;;;12.80;99.90;;;;;;5011284;28;20045;-48
2022/08/06 03:03:16;;;;;;;6.63;3.97;;;12.80;99.90;;;;;;5010090;28;20396;-49
2022/08/06 03:05:44;;;;;;;6.25;4.40;;;12.70;99.90;;;;;;5009771;28;20030;-49
2022/08/06 03:08:14;;;;;;;6.63;4.65;;;12.60;99.90;;;;;;5010208;28;20034;-51
2022/08/06 03:10:41;;;;;;;7.05;5.00;;;12.50;99.90;;;;;;5000980;28;20042;-47
2022/08/06 03:13:08;;;;;;;5.25;3.90;;;12.50;99.90;;;;;;4991578;28;20060;-50
2022/08/06 03:15:35;;;;;;;5.97;3.33;;;12.40;99.90;;;;;;4991037;28;20104;-52
2022/08/06 03:18:03;;;;;;;6.00;3.03;;;12.30;99.90;;;;;;5010857;28;20046;-49
2022/08/06 03:20:31;;;;;;;4.03;3.08;;;12.30;99.90;;;;;;5009917;28;20136;-52
2022/08/06 03:23:00;;;;;;;5.88;2.53;;;12.40;99.90;;;;;;5011731;28;20042;-50
2022/08/06 03:25:28;;;;;;;5.00;2.90;;;12.30;99.90;;;;;;5013694;28;20042;-53
2022/08/06 03:27:55;;;;;;;3.78;2.45;;;12.30;99.90;;;;;;5013294;28;20034;-51
2022/08/06 03:30:22;;;;;;;4.38;3.10;;;12.30;99.90;;;;;;5015131;28;20486;-46
2022/08/06 03:32:49;;;;;;;3.38;2.30;;;12.20;99.90;;;;;;5014510;28;20049;-50
2022/08/06 03:35:15;;;;;;;3.95;2.55;;;12.20;99.90;;;;;;5014659;28;20033;-49
2022/08/06 03:37:42;;;;;;;3.90;2.20;;;12.20;99.90;;;;;;5014891;28;20065;-53
2022/08/06 03:40:10;;;;;;;3.92;2.20;;;12.20;99.90;;;;;;5013918;28;20607;-51
2022/08/06 03:42:36;;;;;;;4.28;2.20;;;12.00;99.90;;;;;;5010071;28;20130;-48
2022/08/06 03:45:02;;;;;;;4.78;2.45;;;12.10;99.90;;;;;;5004356;28;20042;-49
2022/08/06 03:47:32;;;;;;;5.50;2.30;;;12.20;99.90;;;;;;5014450;28;20074;-51
2022/08/06 03:50:16;;;;;;;5.47;2.65;;;12.20;99.90;;;;;;5010144;28;20121;-50
2022/08/06 03:53:06;;;;;;;4.90;2.50;;;12.20;99.90;;;;;;5014464;28;20038;-52
2022/08/06 03:55:34;;;;;;;3.75;2.00;;;12.20;99.90;;;;;;5013703;28;20367;-48
2022/08/06 03:58:05;;;;;;;4.05;2.00;;;12.10;99.90;;;;;;5004409;28;20042;-52
2022/08/06 04:00:35;;;;;;;3.70;2.30;;;12.20;99.90;;;;;;5000463;28;20497;-47
2022/08/06 04:03:04;;;;;;;3.88;2.30;;;12.20;99.90;;;;;;4994778;28;20069;-48
2022/08/06 04:05:31;;;;;;;5.20;2.00;;;12.20;99.90;;;;;;4995869;28;20030;-48
2022/08/06 04:08:03;;;;;;;4.72;2.58;;;12.20;99.90;;;;;;4994475;28;20172;-49
2022/08/06 04:10:49;;;;;;;4.20;2.50;;;12.10;99.90;;;;;;4994636;28;20474;-49
2022/08/06 04:13:21;;;;;;;4.65;2.80;;;12.00;99.90;;;;;;4977356;28;20038;-48
2022/08/06 04:15:47;;;;;;;3.70;2.10;;;12.10;99.90;;;;;;4995643;28;20070;-47
2022/08/06 04:18:27;;;;;;;3.22;2.10;;;12.10;99.90;;;;;;4999891;28;20037;-53
2022/08/06 04:20:55;;;;;;;3.40;2.10;;;12.00;99.90;;;;;;5013133;28;20493;-53
2022/08/06 04:23:21;;;;;;;4.43;2.03;;;12.10;99.90;;;;;;5013578;28;20107;-51
2022/08/06 04:25:53;;;;;;;5.75;2.40;;;12.10;99.90;;;;;;5012358;28;20428;-47
2022/08/06 04:28:20;;;;;;;4.65;2.47;;;12.20;99.90;;;;;;4994226;28;20172;-52
2022/08/06 04:30:48;;;;;;;4.50;2.30;;;12.20;99.90;;;;;;5013669;28;20042;-47
2022/08/06 04:33:18;;;;;;;4.57;2.70;;;12.10;99.90;;;;;;5012585;28;20044;-49
2022/08/06 04:35:44;;;;;;;3.53;2.38;;;12.20;99.90;;;;;;5013441;28;20065;-48
2022/08/06 04:38:11;;;;;;;4.93;2.63;;;12.10;99.90;;;;;;5013753;28;20489;-49
2022/08/06 04:40:38;;;;;;;4.82;2.50;;;12.30;99.90;;;;;;5012576;28;20053;-51
2022/08/06 04:43:09;;;;;;;3.38;2.60;;;12.30;99.90;;;;;;5013243;28;20049;-48
2022/08/06 04:45:38;;;;;;;3.47;2.38;;;12.30;99.90;;;;;;5013260;28;20038;-52
2022/08/06 04:48:07;;;;;;;6.10;2.65;;;12.40;99.90;;;;;;5012629;28;20321;-51
2022/08/06 04:50:35;;;;;;;3.88;2.45;;;12.60;99.90;;;;;;5011928;28;20039;-49
2022/08/06 04:53:13;;;;;;;3.58;2.22;;;12.50;99.90;;;;;;4994202;28;20030;-51
2022/08/06 04:55:40;;;;;;;4.65;2.58;;;12.60;99.90;;;;;;5011851;28;20046;-51
2022/08/06 04:58:07;;;;;;;4.55;2.13;;;12.60;99.90;;;;;;4995365;28;20096;-50
2022/08/06 05:00:35;;;;;;;4.78;2.45;;;12.70;99.90;;;;;;5007415;28;20116;-51
2022/08/06 05:03:01;;;;;;;3.75;2.63;;;12.70;99.90;;;;;;4993748;28;20398;-50
2022/08/06 05:05:30;;;;;;;5.60;2.83;;;12.60;99.90;;;;;;5011534;28;20299;-48
2022/08/06 05:07:58;;;;;;;3.55;2.40;;;12.80;99.90;;;;;;5013177;28;20477;-46
2022/08/06 05:10:31;;;;;;;4.10;2.25;;;12.70;99.90;;;;;;5010350;28;20038;-46
2022/08/06 05:12:57;;;;;;;4.38;2.45;;;12.70;99.90;;;;;;5012267;28;20248;-50
2022/08/06 05:15:29;;;;;;;6.55;2.60;;;12.80;99.90;;;;;;5012665;28;20121;-51
2022/08/06 05:18:09;;;;;;;4.95;2.10;;;12.80;99.90;;;;;;5012984;28;20116;-47
2022/08/06 05:20:38;;;;;;;3.58;2.40;;;12.80;99.90;;;;;;5012447;28;20046;-48
2022/08/06 05:23:15;;;;;;;8.95;2.78;;;12.80;99.90;;;;;;5011535;28;20080;-51
2022/08/06 05:25:40;;;;;;;3.63;2.83;;;12.80;99.90;;;;;;5007815;28;20053;-48
2022/08/06 05:28:07;;;;;;;5.28;2.90;;;12.80;99.90;;;;;;5011275;28;20046;-49
2022/08/06 05:30:33;;;;;;;5.97;3.10;;;12.80;99.90;;;;;;5012816;28;20437;-52
2022/08/06 05:32:58;;;;;;;4.72;2.70;;;12.70;99.90;;;;;;5012485;28;20128;-53
2022/08/06 05:35:25;;;;;;;4.40;2.90;;;12.70;99.90;;;;;;5012814;28;20042;-53
2022/08/06 05:37:50;;;;;;;6.05;3.08;;;12.70;99.90;;;;;;5012529;28;20145;-52
2022/08/06 05:40:16;;;;;;;5.63;3.05;;;12.80;99.90;;;;;;5012720;28;20121;-49
2022/08/06 05:42:42;;;;;;;5.18;2.63;;;12.90;99.90;;;;;;5012328;28;20038;-48
2022/08/06 05:45:11;;;;;;;6.97;3.70;;;13.00;99.90;;;;;;5012166;28;20481;-47
2022/08/06 05:47:40;;;;;;;4.85;3.65;;;13.00;99.90;;;;;;5003039;28;20042;-51
2022/08/06 05:50:13;;;;;;;5.53;3.42;;;13.10;99.90;;;;;;5011448;28;20030;-47
2022/08/06 05:52:53;;;;;;;4.88;3.33;;;13.10;99.90;;;;;;5011671;28;20069;-49
2022/08/06 05:55:24;;;;;;;4.75;2.78;;;13.20;99.90;;;;;;5006904;28;20046;-52
2022/08/06 05:57:56;;;;;;;4.25;3.20;;;13.20;99.90;;;;;;5010948;28;20425;-52
2022/08/06 06:00:26;;;;;;;5.93;3.10;;;13.20;99.90;;;;;;5011093;28;20448;-46
2022/08/06 06:02:54;;;;;;;5.43;2.83;;;13.30;99.90;;;;;;5012088;28;20049;-53
2022/08/06 06:05:22;;;;;;;5.57;3.10;;;13.50;99.90;;;;;;5010782;28;20045;-49
2022/08/06 06:07:52;;;;;;;4.15;2.53;;;13.60;99.90;;;;;;5011932;28;20079;-49
2022/08/06 06:10:18;;;;;;;5.13;3.08;;;13.70;99.90;;;;;;5012006;28;20045;-49
2022/08/06 06:12:45;;;;;;;7.88;3.60;;;13.80;99.90;;;;;;5011842;28;20390;-50
2022/08/06 06:15:13;;;;;;;5.10;2.85;;;13.90;99.90;;;;;;5011893;28;20080;-51
2022/08/06 06:18:03;;;;;;;4.75;2.70;;;14.00;99.90;;;;;;5011561;28;20046;-50
2022/08/06 06:20:45;;;;;;;5.05;2.50;;;14.10;99.90;;;;;;5011534;28;20100;-50
2022/08/06 06:23:38;;;;;;;4.40;2.45;;;14.20;99.90;;;;;;5011565;28;20100;-52
2022/08/06 06:26:17;;;;;;;4.55;2.50;;;14.40;99.90;;;;;;5011589;28;20041;-49
2022/08/06 06:28:43;;;;;;;3.08;2.30;;;14.40;99.90;;;;;;5007445;28;20038;-50
2022/08/06 06:31:11;;;;;;;4.80;2.35;;;14.40;99.90;;;;;;5005396;28;20393;-51
2022/08/06 06:33:47;;;;;;;6.93;2.05;;;14.60;99.90;;;;;;4999462;28;20050;-48
2022/08/06 06:36:31;;;;;;;4.20;2.28;;;14.70;99.90;;;;;;4996579;28;20057;-50
2022/08/06 06:39:08;;;;;;;3.58;2.08;;;14.80;99.90;;;;;;4979114;28;20042;-47
2022/08/06 06:41:53;;;;;;;4.05;1.83;;;14.90;99.90;;;;;;5007230;28;20050;-51
2022/08/06 06:44:24;;;;;;;;;;;15.00;99.90;;;;;;4997262;28;20030;-47
2022/08/06 06:46:57;;;;;;;3.80;1.98;;;15.10;99.90;;;;;;5005330;28;19925;-53
2022/08/06 06:49:39;;;;;;;4.50;2.28;;;15.20;99.90;;;;;;5009842;28;20030;-51
2022/08/06 06:52:14;;;;;;;4.70;2.25;;;15.30;99.90;;;;;;5011075;28;20038;-52
2022/08/06 06:54:47;;;;;;;3.85;2.10;;;15.40;99.90;;;;;;4992664;28;20038;-48
2022/08/06 06:57:31;;;;;;;3.90;1.95;;;15.40;99.90;;;;;;5010207;28;20033;-50
2022/08/06 07:00:00;;;;;;;3.13;1.70;;;15.40;99.90;;;;;;4991419;28;20149;-52
2022/08/06 07:02:29;;;;;;;3.75;1.50;;;15.50;99.90;;;;;;5011230;28;20049;-50
2022/08/06 07:04:57;;;;;;;5.97;1.60;;;15.60;99.90;;;;;;5012360;28;20038;-49
2022/08/06 07:07:24;;;;;;;4.93;2.00;;;15.70;99.90;;;;;;4994518;28;20397;-51
2022/08/06 07:09:53;;;;;;;2.95;1.20;;;15.70;99.90;;;;;;4978042;28;20054;-50
2022/08/06 07:12:22;;;;;;;3.17;1.20;;;15.80;99.90;;;;;;5010177;28;20069;-48
2022/08/06 07:14:52;;;;;;;3.90;0.90;;;15.90;99.90;;;;;;5002790;28;20128;-51
2022/08/06 07:17:20;;;;;;;2.72;0.80;;;16.00;99.90;;;;;;5008031;28;20046;-51
2022/08/06 07:19:51;;;;;;;2.05;0.82;;;16.00;99.90;;;;;;5006801;28;20144;-48
2022/08/06 07:22:20;;;;;;;4.28;0.75;;;16.00;99.90;;;;;;5008448;28;20038;-50
2022/08/06 07:24:48;;;;;;;3.25;0.80;;;16.20;99.90;;;;;;5008247;28;20528;-53
2022/08/06 07:27:14;;;;;;;2.60;0.75;;;16.30;99.90;;;;;;5006834;28;20033;-49
2022/08/06 07:29:41;;;;;;;3.83;0.70;;;16.30;99.90;;;;;;5007244;28;20120;-49
2022/08/06 07:32:10;;;;;;;2.33;0.73;;;16.30;99.90;;;;;;5007642;28;20081;-46
2022/08/06 07:34:36;;;;;;;2.97;0.68;;;16.40;99.90;;;;;;5005895;28;20034;-50
2022/08/06 07:37:03;;;;;;;3.33;0.70;;;16.40;99.90;;;;;;5007646;28;20536;-49
2022/08/06 07:39:33;;;;;;;4.43;0.82;;;16.40;99.90;;;;;;5007805;28;20416;-51
2022/08/06 07:42:02;;;;;;;8.43;1.15;;;16.60;99.90;;;;;;5007541;28;20050;-49
2022/08/06 07:44:31;;;;;;;3.15;0.77;;;16.70;99.90;;;;;;5006382;28;20041;-51
2022/08/06 07:47:00;;;;;;;3.60;0.63;;;16.70;99.90;;;;;;5005294;28;20069;-53
2022/08/06 07:49:33;;;;;;;1.88;0.57;;;16.70;99.90;;;;;;5006136;28;20347;-53
2022/08/06 07:52:00;;;;;;;2.78;0.80;;;16.70;99.90;;;;;;5001693;28;20108;-50
2022/08/06 07:54:30;;;;;;;2.55;0.65;;;16.80;99.90;;;;;;4997984;28;20030;-49
2022/08/06 07:56:57;;;;;;;1.75;0.52;;;17.00;99.90;;;;;;5007231;28;20077;-52
2022/08/06 07:59:25;;;;;;;6.13;0.75;;;17.20;99.90;;;;;;5008480;28;20042;-48
2022/08/06 08:01:51;;;;;;;3.22;0.98;;;17.10;99.90;;;;;;5004934;28;20033;-50
2022/08/06 08:07:05;;;;;;;2.63;0.60;;;17.00;99.90;;;;;;5002300;28;20050;-51
2022/08/06 08:09:31;;;;;;;4.32;0.80;;;17.00;99.90;;;;;;5005637;28;20406;-49
2022/08/06 08:11:58;;;;;;;3.95;1.38;;;17.10;99.90;;;;;;5009024;28;20551;-50
2022/08/06 08:14:25;;;;;;;4.50;0.88;;;17.30;99.90;;;;;;5011115;28;20433;-51
2022/08/06 08:16:51;;;;;;;3.47;0.88;;;17.40;99.90;;;;;;5011820;28;20072;-50
2022/08/06 08:19:23;;;;;;;3.47;0.70;;;17.40;99.90;;;;;;5011502;28;20508;-53
2022/08/06 08:21:53;;;;;;;5.25;0.98;;;17.50;99.90;;;;;;5012009;28;20052;-51
2022/08/06 08:24:19;;;;;;;3.88;1.00;;;17.60;99.90;;;;;;5011506;28;20473;-51
2022/08/06 08:26:44;;;;;;;4.15;0.70;;;17.90;99.90;;;;;;5006209;28;20030;-52
2022/08/06 08:29:11;;;;;;;4.28;0.88;;;17.90;99.90;;;;;;5006475;28;20033;-53
2022/08/06 08:31:37;;;;;;;2.42;0.60;;;18.20;99.90;;;;;;5009598;28;20046;-52
2022/08/06 08:34:03;;;;;;;2.38;0.68;;;18.10;99.90;;;;;;5008026;28;20046;-52
2022/08/06 08:36:28;;;;;;;5.05;0.90;;;18.00;99.90;;;;;;5009949;28;20044;-51
2022/08/06 08:38:57;;;;;;;4.70;0.80;;;18.20;99.90;;;;;;5009380;28;20121;-50
2022/08/06 08:41:32;;;;;;;3.92;1.08;;;18.20;99.90;;;;;;5009257;28;20033;-51
2022/08/06 08:44:06;;;;;;;1.50;0.70;;;18.30;99.90;;;;;;5008946;28;20076;-51
2022/08/06 08:46:42;;;;;;;2.97;0.73;;;18.20;99.90;;;;;;5010586;28;20037;-51
2022/08/06 08:49:18;;;;;;;3.55;0.90;;;18.30;99.90;;;;;;5011230;28;20470;-52
2022/08/06 08:51:45;;;;;;;4.18;1.05;;;18.10;99.90;;;;;;5011045;28;20048;-51
2022/08/06 08:54:15;;;;;;;4.78;1.17;;;18.00;99.90;;;;;;5010611;28;20045;-50
2022/08/06 08:56:41;;;;;;;4.18;1.00;;;18.10;99.90;;;;;;5007565;28;20498;-49
2022/08/06 08:59:08;;;;;;;3.05;0.80;;;18.20;99.90;;;;;;5007773;28;20361;-50
2022/08/06 09:01:34;;;;;;;2.28;0.75;;;18.30;99.90;;;;;;5008635;28;20056;-50
2022/08/06 09:04:04;;;;;;;2.85;1.00;;;18.50;99.90;;;;;;5007577;28;20461;-51
2022/08/06 09:06:32;;;;;;;3.15;1.05;;;18.60;99.90;;;;;;5010825;28;20547;-47
2022/08/06 09:09:03;;;;;;;4.30;1.10;;;18.60;99.90;;;;;;5010553;28;20055;-52
2022/08/06 09:11:30;;;;;;;4.57;1.23;;;18.60;99.90;;;;;;5010887;28;20057;-50
2022/08/06 09:13:59;;;;;;;4.18;1.15;;;19.10;99.90;;;;;;5010548;28;20507;-50
2022/08/06 09:16:24;;;;;;;5.35;1.35;;;19.00;99.90;;;;;;5010565;28;20041;-50
2022/08/06 09:18:51;;;;;;;4.18;1.40;;;19.10;99.90;;;;;;5010069;28;20049;-50
2022/08/06 09:21:16;;;;;;;3.30;1.23;;;18.80;99.90;;;;;;5009192;28;20088;-49
2022/08/06 09:23:42;;;;;;;3.70;1.42;;;19.10;99.90;;;;;;5010293;28;20038;-51
2022/08/06 09:26:08;;;;;;;4.97;1.23;;;18.90;99.90;;;;;;5009847;28;20081;-52
2022/08/06 09:28:42;;;;;;;2.38;1.00;;;19.50;99.90;;;;;;4992381;28;20454;-50
2022/08/06 09:31:14;;;;;;;8.77;1.60;;;19.90;99.90;;;;;;5009159;28;20050;-51
2022/08/06 09:33:42;;;;;;;7.18;1.30;;;19.80;99.70;;;;;;5009132;28;20133;-50
2022/08/06 09:36:13;;;;;;;3.42;1.23;;;19.60;99.90;;;;;;5008608;28;20046;-52
2022/08/06 09:38:47;;;;;;;3.53;1.50;;;19.40;99.80;;;;;;5007567;28;20443;-52
2022/08/06 09:41:14;;;;;;;4.07;1.33;;;19.40;99.60;;;;;;5007862;28;20038;-49
2022/08/06 09:43:41;;;;;;;3.53;1.42;;;19.30;99.90;;;;;;5007957;28;20041;-49
2022/08/06 09:46:07;;;;;;;2.78;1.10;;;19.40;99.20;;;;;;4989673;28;20038;-51
2022/08/06 09:48:33;;;;;;;2.63;1.27;;;19.30;99.00;;;;;;5008597;28;20046;-51
2022/08/06 09:50:59;;;;;;;3.28;1.13;;;19.20;99.60;;;;;;5008459;28;20166;-51
2022/08/06 09:53:26;;;;;;;4.55;1.40;;;19.10;99.90;;;;;;5008351;28;20042;-51
2022/08/06 09:55:54;;;;;;;3.35;1.23;;;19.10;99.90;;;;;;5006978;28;20099;-49
2022/08/06 09:58:47;;;;;;;3.67;1.38;;;19.00;99.90;;;;;;5009151;28;20107;-51
2022/08/06 10:01:15;;;;;;;5.20;1.38;;;18.90;99.90;;;;;;5002442;28;20052;-49
2022/08/06 10:03:41;;;;;;;3.55;1.20;;;18.90;99.90;;;;;;5006941;28;20037;-49
2022/08/06 10:06:13;;;;;;;4.07;1.30;;;18.80;99.90;;;;;;5007224;28;20097;-48
2022/08/06 10:08:40;;;;;;;5.30;1.35;;;18.80;99.90;;;;;;5009293;28;20033;-50
2022/08/06 10:11:06;;;;;;;4.47;1.35;;;18.70;99.90;;;;;;5010239;28;20096;-48
2022/08/06 10:13:32;;;;;;;3.20;1.30;;;18.70;99.90;;;;;;5009741;28;20037;-48
2022/08/06 10:16:00;;;;;;;3.65;1.33;;;18.50;99.90;;;;;;5008139;28;20060;-53
2022/08/06 10:18:30;;;;;;;3.63;1.25;;;18.60;99.90;;;;;;5008564;28;20046;-50
2022/08/06 10:21:03;;;;;;;3.10;1.23;;;18.90;99.60;;;;;;5007277;28;20108;-51
2022/08/06 10:23:32;;;;;;;3.60;1.10;;;19.20;98.30;;;;;;5008126;28;20042;-49
2022/08/06 10:25:59;;;;;;;3.22;1.20;;;19.60;97.40;;;;;;5006636;28;20073;-49
2022/08/06 10:28:27;;;;;;;3.00;1.42;;;19.90;97.10;;;;;;5006870;28;20037;-49
2022/08/06 10:30:54;;;;;;;4.50;1.25;;;20.10;95.90;;;;;;5008541;28;20034;-50
2022/08/06 10:33:22;;;;;;;3.97;1.35;;;20.50;95.50;;;;;;5008939;28;20072;-52
2022/08/06 10:35:51;;;;;;;3.28;1.60;;;20.60;94.70;;;;;;5007580;28;20095;-50
2022/08/06 10:38:22;;;;;;;7.10;1.55;;;20.70;93.10;;;;;;5007776;28;20038;-52
2022/08/06 10:40:53;;;;;;;3.50;1.50;;;20.80;93.10;;;;;;5007465;28;20038;-51
2022/08/06 10:43:19;;;;;;;3.50;1.48;;;21.10;93.20;;;;;;5005419;28;20040;-50
2022/08/06 10:45:46;;;;;;;4.15;1.30;;;21.30;94.20;;;;;;5002526;28;20138;-51
2022/08/06 10:48:12;;;;;;;3.72;1.52;;;21.30;94.00;;;;;;5006420;28;20084;-52
2022/08/06 10:50:37;;;;;;;3.60;1.23;;;21.40;93.40;;;;;;5008654;28;20070;-53
2022/08/06 10:53:05;;;;;;;3.35;1.17;;;21.20;93.90;;;;;;5008075;28;20456;-51
2022/08/06 10:55:31;;;;;;;3.00;1.30;;;20.70;94.30;;;;;;5006087;28;20099;-50
2022/08/06 10:57:58;;;;;;;2.88;1.52;;;20.50;95.10;;;;;;5006172;28;20046;-50
2022/08/06 11:00:25;;;;;;;3.53;1.60;;;20.40;95.90;;;;;;5007498;28;20096;-50
2022/08/06 11:03:18;;;;;;;3.95;1.40;;;20.20;95.90;;;;;;5007023;28;20054;-50
2022/08/06 11:05:55;;;;;;;3.22;1.50;;;20.10;96.70;;;;;;4989299;28;20034;-50
2022/08/06 11:08:52;;;;;;;2.47;1.08;;;20.00;96.40;;;;;;5005955;28;20057;-52
2022/08/06 11:11:36;;;;;;;3.47;1.20;;;19.80;95.80;;;;;;5005420;28;20042;-52
2022/08/06 11:14:14;;;;;;;3.25;1.30;;;19.80;97.00;;;;;;5004605;28;20038;-52
2022/08/06 11:16:40;;;;;;;3.15;1.20;;;19.80;96.70;;;;;;5005028;28;20092;-54
2022/08/06 11:19:11;;;;;;;6.38;1.33;;;19.80;97.10;;;;;;5006792;28;20505;-52
2022/08/06 11:21:40;;;;;;;4.20;1.60;;;19.90;98.10;;;;;;5005766;28;20069;-53
2022/08/06 11:24:06;;;;;;;2.55;1.00;;;19.90;98.40;;;;;;4989457;28;20034;-49
2022/08/06 11:26:35;;;;;;;2.95;1.45;;;19.80;96.80;;;;;;5005932;28;20045;-49
2022/08/06 11:29:01;;;;;;;5.95;2.97;;;19.90;97.30;;;;;;4999266;28;20063;-46
2022/08/06 11:31:33;;;;;;;2.78;1.20;;;19.90;97.40;;;;;;5001578;28;20283;-50
2022/08/06 11:34:00;;;;;;;3.42;1.60;;;19.90;95.90;;;;;;5006931;28;20049;-49
2022/08/06 11:36:27;;;;;;;4.05;1.45;;;20.20;96.90;;;;;;5007949;28;20120;-51
2022/08/06 11:38:53;;;;;;;3.05;1.00;;;20.70;96.60;;;;;;5007526;28;20052;-52
2022/08/06 11:41:21;;;;;;;3.08;1.30;;;20.70;95.70;;;;;;5007668;28;20038;-50
2022/08/06 11:43:53;;;;;;;2.63;1.00;;;20.70;95.20;;;;;;5006067;28;20041;-51
2022/08/06 11:46:21;;;;;;;2.67;1.10;;;20.60;94.60;;;;;;4993932;28;20475;-48
2022/08/06 11:48:59;;;;;;;2.67;1.02;;;20.70;95.80;;;;;;4978116;28;20037;-51
2022/08/06 11:51:44;;;;;;;3.60;1.08;;;21.10;95.70;;;;;;5009444;28;20080;-51
2022/08/06 11:54:11;;;;;;;;;;;21.50;95.40;;;;;;5008943;28;20435;-54
2022/08/06 11:57:04;;;;;;;2.33;0.90;;;21.90;95.10;;;;;;5010359;28;20016;-53
2022/08/06 11:59:34;;;;;;;2.60;1.10;;;22.10;94.70;;;;;;5010826;28;20109;-49
2022/08/06 12:02:03;;;;;;;4.60;1.08;;;22.10;94.60;;;;;;5010805;28;20715;-49
2022/08/06 12:04:34;;;;;;;2.38;1.00;;;21.80;95.10;;;;;;5009823;28;20380;-52
2022/08/06 12:07:22;;;;;;;2.80;1.00;;;21.40;93.50;;;;;;5007895;28;20547;-53
2022/08/06 12:10:03;;;;;;;3.55;1.13;;;21.10;94.00;;;;;;4992181;28;20041;-54
2022/08/06 12:12:28;;;;;;;3.53;1.05;;;20.70;94.30;;;;;;5010309;28;20044;-50
2022/08/06 12:14:59;;;;;;;1.98;0.80;;;20.70;95.00;;;;;;5009461;28;20038;-54
2022/08/06 12:17:27;;;;;;;3.10;1.00;;;20.80;94.80;;;;;;5010154;28;20048;-52
2022/08/06 12:19:57;;;;;;;3.30;1.10;;;21.40;94.90;;;;;;5006781;28;20057;-49
2022/08/06 12:22:23;;;;;;;3.00;1.05;;;22.00;94.70;;;;;;5011078;28;20034;-50
2022/08/06 12:24:56;;;;;;;4.32;1.10;;;22.40;94.40;;;;;;5011519;28;20042;-50
2022/08/06 12:27:23;;;;;;;2.83;1.10;;;22.80;94.10;;;;;;5010443;28;20033;-54
2022/08/06 12:29:57;;;;;;;2.55;0.98;;;22.70;92.10;;;;;;4994305;28;20038;-52
2022/08/06 12:32:26;;;;;;;2.20;1.00;;;23.30;92.60;;;;;;5012450;28;20052;-52
2022/08/06 12:34:54;;;;;;;3.00;0.80;;;23.10;92.00;;;;;;5011766;28;20041;-49
2022/08/06 12:37:20;;;;;;;2.45;1.00;;;23.20;91.90;;;;;;5013397;28;20038;-51
2022/08/06 12:42:32;;;;;;;2.72;1.20;;;23.80;92.40;;;;;;4979100;28;20049;-52
2022/08/06 12:44:58;;;;;;;4.43;1.10;;;23.90;91.70;;;;;;4994405;28;20073;-50
2022/08/06 12:47:27;;;;;;;3.92;1.00;;;23.80;91.80;;;;;;4985885;28;20049;-53
2022/08/06 12:49:53;;;;;;;2.33;0.90;;;23.50;90.80;;;;;;5002920;28;20054;-50
2022/08/06 12:52:21;;;;;;;2.72;1.00;;;23.20;91.90;;;;;;4960850;28;20060;-51
2022/08/06 12:54:48;;;;;;;4.88;0.90;;;23.50;91.50;;;;;;5000595;28;20049;-54
2022/08/06 12:57:26;;;;;;;3.85;1.40;;;23.60;91.50;;;;;;5007835;28;20033;-50
2022/08/06 12:59:52;;;;;;;3.53;1.00;;;22.90;91.10;;;;;;5011568;28;20056;-50
2022/08/06 13:02:20;;;;;;;2.25;1.05;;;23.00;92.30;;;;;;5010027;28;20069;-49
2022/08/06 13:04:52;;;;;;;5.53;1.20;;;23.20;91.80;;;;;;5006836;28;20037;-51